Time;durP1;ratioP1;P1;durP2;ratioP2;P2;SDS_P1;SDS_P2;PMS_P1;PMS_P2;Temp;Humidity;BMP_temperature;BMP_pressure;BME280_temperature;BME280_humidity;BME280_pressure;Samples;Min_cycle;Max_cycle;Signal;HPM_P1;HPM_P2
2023/01/15 00:01:44;;;;;;;2.20;1.40;;;;;;;;;;4962088;28;20046;-68
2023/01/15 00:04:11;;;;;;;3.35;1.73;;;;;;;;;;4959686;28;20053;-73
2023/01/15 00:06:39;;;;;;;2.45;1.40;;;;;;;;;;4961722;28;20055;-70
2023/01/15 00:09:06;;;;;;;2.25;1.40;;;;;;;;;;4955300;28;20536;-69
2023/01/15 00:11:32;;;;;;;3.88;1.58;;;;;;;;;;4956917;28;20051;-66
2023/01/15 00:13:59;;;;;;;1.92;1.42;;;;;;;;;;4964939;28;20547;-78
2023/01/15 00:16:26;;;;;;;3.95;1.60;;;;;;;;;;4959034;28;20055;-67
2023/01/15 00:18:54;;;;;;;2.40;1.42;;;;;;;;;;4965071;28;20053;-66
2023/01/15 00:21:21;;;;;;;2.95;1.38;;;;;;;;;;4959360;28;20055;-66
2023/01/15 00:29:18;;;;;;;3.78;1.40;;;;;;;;;;4960232;28;20173;-68
2023/01/15 00:31:53;;;;;;;2.47;1.48;;;;;;;;;;4962816;28;20051;-70
2023/01/15 00:34:19;;;;;;;;;;;;;;;;;;4961373;28;20154;-66
2023/01/15 00:36:45;;;;;;;2.47;1.50;;;;;;;;;;4956291;28;20021;-69
2023/01/15 00:39:11;;;;;;;2.45;1.40;;;;;;;;;;4955501;28;20161;-64
2023/01/15 00:41:37;;;;;;;5.28;1.40;;;;;;;;;;4964151;28;20053;-70
2023/01/15 00:44:03;;;;;;;2.75;1.52;;;;;;;;;;4958827;28;20043;-64
2023/01/15 00:46:29;;;;;;;2.38;1.40;;;;;;;;;;4957348;28;20406;-69
2023/01/15 00:48:55;;;;;;;2.97;1.70;;;;;;;;;;4962199;28;20054;-66
2023/01/15 00:51:21;;;;;;;3.97;1.60;;;;;;;;;;4952948;28;20054;-73
2023/01/15 00:53:47;;;;;;;1.90;1.38;;;;;;;;;;4958494;28;20047;-66
2023/01/15 00:56:14;;;;;;;2.03;1.52;;;;;;;;;;4961475;28;20090;-70
2023/01/15 00:58:39;;;;;;;2.72;1.65;;;;;;;;;;4954828;28;20079;-76
2023/01/15 01:01:06;;;;;;;2.97;1.40;;;;;;;;;;4959198;28;20126;-68
2023/01/15 01:03:31;;;;;;;2.03;1.27;;;;;;;;;;4959897;28;20217;-62
2023/01/15 01:06:02;;;;;;;2.28;1.63;;;;;;;;;;4964127;28;20137;-67
2023/01/15 01:08:28;;;;;;;1.98;1.23;;;;;;;;;;4957239;28;20043;-73
2023/01/15 01:11:03;;;;;;;3.42;1.60;;;;;;;;;;4951533;28;20429;-69
2023/01/15 01:13:29;;;;;;;1.70;1.30;;;;;;;;;;4956293;28;20046;-70
2023/01/15 01:15:55;;;;;;;3.17;1.60;;;;;;;;;;4955834;28;20054;-71
2023/01/15 01:18:20;;;;;;;2.92;1.80;;;;;;;;;;4946756;28;20062;-74
2023/01/15 01:20:47;;;;;;;2.58;1.27;;;;;;;;;;4948532;28;20141;-69
2023/01/15 01:23:12;;;;;;;2.35;1.48;;;;;;;;;;4955915;28;20201;-67
2023/01/15 01:25:38;;;;;;;2.47;1.40;;;;;;;;;;4950474;28;20061;-69
2023/01/15 01:28:04;;;;;;;2.58;1.60;;;;;;;;;;4950164;28;20050;-70
2023/01/15 01:30:30;;;;;;;4.05;2.42;;;;;;;;;;4965075;28;20050;-70
2023/01/15 01:32:57;;;;;;;1.67;1.40;;;;;;;;;;4969789;28;20050;-69
2023/01/15 01:35:23;;;;;;;2.15;1.58;;;;;;;;;;4957716;28;20047;-63
2023/01/15 01:37:50;;;;;;;2.20;1.52;;;;;;;;;;4952600;28;20050;-67
2023/01/15 01:40:17;;;;;;;2.40;1.65;;;;;;;;;;4954909;28;20050;-67
2023/01/15 01:42:44;;;;;;;2.67;1.77;;;;;;;;;;4956013;28;20424;-73
2023/01/15 01:45:18;;;;;;;2.88;1.58;;;;;;;;;;4952142;28;20121;-68
2023/01/15 01:47:44;;;;;;;2.60;1.58;;;;;;;;;;4959828;28;20493;-65
2023/01/15 01:50:12;;;;;;;1.92;1.30;;;;;;;;;;4958483;28;20051;-71
2023/01/15 01:52:55;;;;;;;3.72;2.10;;;;;;;;;;4950126;28;20046;-74
2023/01/15 01:55:22;;;;;;;3.10;1.80;;;;;;;;;;4952257;28;20062;-69
2023/01/15 01:57:51;;;;;;;2.72;1.70;;;;;;;;;;4955077;28;20217;-65
2023/01/15 02:00:18;;;;;;;4.18;1.70;;;;;;;;;;4952296;28;20081;-70
2023/01/15 02:02:46;;;;;;;3.22;1.75;;;;;;;;;;4947970;28;20051;-73
2023/01/15 02:05:18;;;;;;;2.95;1.80;;;;;;;;;;4954075;28;21584;-70
2023/01/15 02:07:44;;;;;;;3.05;1.85;;;;;;;;;;4954175;28;20054;-75
2023/01/15 02:10:15;;;;;;;4.63;1.85;;;;;;;;;;4952417;28;20047;-66
2023/01/15 02:12:44;;;;;;;2.75;1.40;;;;;;;;;;4949932;28;20051;-69
2023/01/15 02:15:15;;;;;;;3.65;1.70;;;;;;;;;;4954174;28;20043;-63
2023/01/15 02:18:01;;;;;;;3.05;1.70;;;;;;;;;;4953439;28;20051;-71
2023/01/15 02:20:45;;;;;;;3.30;1.70;;;;;;;;;;4953062;28;20051;-72
2023/01/15 02:23:32;;;;;;;3.45;1.85;;;;;;;;;;4955501;28;20428;-64
2023/01/15 02:26:29;;;;;;;3.22;1.77;;;;;;;;;;4955006;28;20081;-66
2023/01/15 02:28:58;;;;;;;3.50;1.80;;;;;;;;;;4951545;28;20713;-70
2023/01/15 02:31:33;;;;;;;3.95;2.10;;;;;;;;;;4952291;28;20450;-69
2023/01/15 02:34:27;;;;;;;2.83;1.80;;;;;;;;;;4950534;28;20055;-70
2023/01/15 02:37:02;;;;;;;7.68;1.77;;;;;;;;;;4955981;28;20062;-68
2023/01/15 02:39:30;;;;;;;2.83;1.77;;;;;;;;;;4947112;28;20051;-69
2023/01/15 02:42:00;;;;;;;2.85;1.83;;;;;;;;;;4953604;28;20047;-63
2023/01/15 02:44:29;;;;;;;3.72;1.90;;;;;;;;;;4952609;28;20460;-69
2023/01/15 02:46:58;;;;;;;3.00;2.05;;;;;;;;;;4959854;28;20047;-64
2023/01/15 02:49:24;;;;;;;3.97;2.00;;;;;;;;;;4950552;28;20043;-73
2023/01/15 02:51:57;;;;;;;3.03;1.90;;;;;;;;;;4954116;28;20044;-62
2023/01/15 02:54:27;;;;;;;2.83;2.00;;;;;;;;;;4955544;28;20047;-65
2023/01/15 02:56:55;;;;;;;3.20;1.88;;;;;;;;;;4951268;28;20531;-68
2023/01/15 02:59:26;;;;;;;6.60;1.90;;;;;;;;;;4956903;28;20039;-70
2023/01/15 03:01:57;;;;;;;3.63;2.08;;;;;;;;;;4956291;28;20062;-70
2023/01/15 03:04:29;;;;;;;3.67;2.03;;;;;;;;;;4954599;28;20109;-68
2023/01/15 03:07:08;;;;;;;4.25;2.03;;;;;;;;;;4951943;28;20047;-67
2023/01/15 03:09:35;;;;;;;4.72;2.22;;;;;;;;;;4947283;28;20062;-66
2023/01/15 03:12:05;;;;;;;4.25;1.92;;;;;;;;;;4950372;28;20057;-70
2023/01/15 03:14:37;;;;;;;2.88;1.98;;;;;;;;;;4955296;28;20047;-68
2023/01/15 03:17:30;;;;;;;3.03;2.20;;;;;;;;;;4953691;28;20043;-64
2023/01/15 03:20:02;;;;;;;3.97;2.22;;;;;;;;;;4951986;28;20051;-63
2023/01/15 03:22:32;;;;;;;4.43;2.50;;;;;;;;;;4956532;28;20054;-64
2023/01/15 03:25:19;;;;;;;7.95;2.20;;;;;;;;;;4954192;28;20537;-68
2023/01/15 03:27:45;;;;;;;3.75;2.35;;;;;;;;;;4953162;28;20051;-61
2023/01/15 03:30:14;;;;;;;3.55;2.42;;;;;;;;;;4952898;28;20047;-74
2023/01/15 03:32:41;;;;;;;6.18;2.50;;;;;;;;;;4950642;28;20044;-64
2023/01/15 03:35:45;;;;;;;4.30;2.20;;;;;;;;;;4955662;28;20189;-65
2023/01/15 03:38:13;;;;;;;4.53;2.50;;;;;;;;;;4956914;28;20065;-69
2023/01/15 03:40:51;;;;;;;5.45;2.20;;;;;;;;;;4951739;28;20134;-67
2023/01/15 03:43:43;;;;;;;4.07;2.47;;;;;;;;;;4963040;28;20101;-70
2023/01/15 03:46:37;;;;;;;6.63;2.53;;;;;;;;;;4954052;28;20058;-67
2023/01/15 03:49:34;;;;;;;3.78;2.50;;;;;;;;;;4935806;28;20178;-71
2023/01/15 03:52:12;;;;;;;4.10;2.63;;;;;;;;;;4958903;28;20074;-68
2023/01/15 03:54:51;;;;;;;3.90;2.50;;;;;;;;;;4960886;28;20125;-66
2023/01/15 03:57:33;;;;;;;3.88;2.90;;;;;;;;;;4957430;28;20082;-64
2023/01/15 04:00:11;;;;;;;6.75;2.80;;;;;;;;;;4973772;28;20594;-64
2023/01/15 04:02:38;;;;;;;4.25;2.58;;;;;;;;;;4957812;28;20051;-76
2023/01/15 04:05:05;;;;;;;4.18;2.42;;;;;;;;;;4958862;28;20536;-66
2023/01/15 04:07:31;;;;;;;4.32;2.80;;;;;;;;;;4958233;28;20038;-69
2023/01/15 04:09:58;;;;;;;4.38;2.80;;;;;;;;;;4961331;28;20532;-71
2023/01/15 04:12:23;;;;;;;4.57;2.50;;;;;;;;;;4964698;28;20118;-69
2023/01/15 04:14:49;;;;;;;5.43;2.83;;;;;;;;;;4954977;28;20477;-68
2023/01/15 04:17:15;;;;;;;5.13;2.72;;;;;;;;;;4954442;28;20051;-71
2023/01/15 04:19:43;;;;;;;4.32;2.97;;;;;;;;;;4960255;28;20130;-71
2023/01/15 04:22:10;;;;;;;3.72;2.70;;;;;;;;;;4960711;28;20114;-68
2023/01/15 04:24:37;;;;;;;4.95;3.10;;;;;;;;;;4961737;28;20253;-72
2023/01/15 04:27:03;;;;;;;4.75;3.00;;;;;;;;;;4952811;28;20078;-65
2023/01/15 04:29:29;;;;;;;5.57;2.90;;;;;;;;;;4959865;28;20059;-64
2023/01/15 04:31:56;;;;;;;4.65;3.03;;;;;;;;;;4960531;28;20054;-64
2023/01/15 04:34:27;;;;;;;4.35;2.78;;;;;;;;;;4959972;28;20050;-71
2023/01/15 04:36:54;;;;;;;5.57;3.00;;;;;;;;;;4957924;28;20079;-63
2023/01/15 04:39:21;;;;;;;4.93;2.72;;;;;;;;;;4961976;28;20074;-63
2023/01/15 04:44:35;;;;;;;4.65;2.78;;;;;;;;;;4954695;28;20073;-71
2023/01/15 04:47:00;;;;;;;3.40;2.50;;;;;;;;;;4954441;28;20282;-65
2023/01/15 04:49:27;;;;;;;3.75;2.30;;;;;;;;;;4961245;28;20130;-75
2023/01/15 04:51:53;;;;;;;5.68;2.60;;;;;;;;;;4979087;28;20053;-62
2023/01/15 04:54:20;;;;;;;3.65;2.50;;;;;;;;;;4954245;28;20046;-68
2023/01/15 04:56:49;;;;;;;8.85;2.50;;;;;;;;;;4958127;28;20500;-64
2023/01/15 04:59:18;;;;;;;4.72;3.00;;;;;;;;;;4954444;28;20054;-67
2023/01/15 05:01:44;;;;;;;5.45;2.70;;;;;;;;;;4947963;28;20077;-67
2023/01/15 05:04:10;;;;;;;5.95;2.70;;;;;;;;;;4961259;28;20054;-63
2023/01/15 05:06:36;;;;;;;4.75;2.97;;;;;;;;;;4953118;28;20039;-65
2023/01/15 05:09:04;;;;;;;5.95;3.20;;;;;;;;;;4957926;28;20055;-63
2023/01/15 05:11:33;;;;;;;3.70;2.90;;;;;;;;;;4955205;28;20128;-68
2023/01/15 05:13:59;;;;;;;9.65;2.95;;;;;;;;;;4951869;28;20047;-67
2023/01/15 05:16:27;;;;;;;5.57;3.42;;;;;;;;;;4957350;28;20382;-67
2023/01/15 05:18:57;;;;;;;4.60;2.90;;;;;;;;;;4957498;28;20567;-68
2023/01/15 05:21:25;;;;;;;6.43;3.33;;;;;;;;;;4954502;28;20070;-69
2023/01/15 05:23:53;;;;;;;5.93;3.00;;;;;;;;;;4951944;28;20054;-65
2023/01/15 05:26:20;;;;;;;12.57;2.97;;;;;;;;;;4960603;28;20078;-66
2023/01/15 05:28:47;;;;;;;4.60;3.15;;;;;;;;;;4955710;28;20062;-71
2023/01/15 05:31:15;;;;;;;7.60;3.05;;;;;;;;;;4958611;28;20440;-63
2023/01/15 05:33:42;;;;;;;5.80;3.05;;;;;;;;;;4957067;28;20141;-65
2023/01/15 05:36:12;;;;;;;4.00;2.50;;;;;;;;;;4956318;28;20063;-62
2023/01/15 05:38:39;;;;;;;7.30;3.08;;;;;;;;;;4961166;28;20055;-63
2023/01/15 05:41:47;;;;;;;4.70;2.70;;;;;;;;;;4955744;28;20474;-68
2023/01/15 05:43:54;;;;;;;4.60;3.03;;;;;;;;;;4954568;28;20046;-75
2023/01/15 05:46:19;;;;;;;5.45;3.20;;;;;;;;;;4948288;28;20051;-73
2023/01/15 05:48:45;;;;;;;8.00;3.22;;;;;;;;;;4954336;28;20522;-66
2023/01/15 05:51:11;;;;;;;7.45;3.33;;;;;;;;;;4951885;28;20055;-74
2023/01/15 05:53:37;;;;;;;9.48;3.63;;;;;;;;;;4963611;28;20394;-69
2023/01/15 05:56:04;;;;;;;4.57;3.00;;;;;;;;;;4952341;28;20043;-64
2023/01/15 05:58:31;;;;;;;5.50;3.50;;;;;;;;;;4954261;28;20047;-68
2023/01/15 06:00:57;;;;;;;6.50;3.22;;;;;;;;;;4960746;28;20255;-70
2023/01/15 06:03:25;;;;;;;7.35;3.20;;;;;;;;;;4956027;28;20054;-68
2023/01/15 06:05:51;;;;;;;4.72;3.30;;;;;;;;;;4958424;28;20409;-69
2023/01/15 06:08:17;;;;;;;6.10;3.33;;;;;;;;;;4955633;28;20607;-68
2023/01/15 06:10:44;;;;;;;7.95;4.00;;;;;;;;;;4951628;28;20043;-73
2023/01/15 06:13:10;;;;;;;4.95;3.50;;;;;;;;;;4953766;28;20413;-65
2023/01/15 06:15:36;;;;;;;5.85;3.72;;;;;;;;;;4946911;28;20043;-71
2023/01/15 06:18:02;;;;;;;7.18;3.50;;;;;;;;;;4952614;28;20130;-64
2023/01/15 06:20:28;;;;;;;5.82;3.53;;;;;;;;;;4956095;28;20138;-73
2023/01/15 06:22:54;;;;;;;5.55;3.35;;;;;;;;;;4955733;28;20055;-69
2023/01/15 06:25:20;;;;;;;8.80;3.67;;;;;;;;;;4954561;28;20122;-69
2023/01/15 06:27:48;;;;;;;7.70;3.60;;;;;;;;;;4952684;28;20055;-71
2023/01/15 06:30:14;;;;;;;5.93;3.45;;;;;;;;;;4952219;28;20054;-74
2023/01/15 06:32:40;;;;;;;8.38;3.55;;;;;;;;;;4954179;28;20386;-65
2023/01/15 06:35:06;;;;;;;4.97;3.38;;;;;;;;;;4958866;28;20061;-74
2023/01/15 06:37:32;;;;;;;4.93;3.28;;;;;;;;;;4954426;28;20054;-64
2023/01/15 06:39:58;;;;;;;5.50;3.45;;;;;;;;;;4953409;28;20058;-68
2023/01/15 06:47:55;;;;;;;5.60;3.10;;;;;;;;;;4948139;28;20055;-63
2023/01/15 06:50:22;;;;;;;4.82;2.97;;;;;;;;;;4957248;28;20137;-63
2023/01/15 06:52:48;;;;;;;5.95;2.78;;;;;;;;;;4958099;28;20057;-72
2023/01/15 06:55:14;;;;;;;5.43;3.10;;;;;;;;;;4960725;28;20055;-66
2023/01/15 06:57:40;;;;;;;6.35;3.00;;;;;;;;;;4958240;28;20062;-70
2023/01/15 07:00:07;;;;;;;4.63;3.25;;;;;;;;;;4954223;28;20055;-65
2023/01/15 07:02:33;;;;;;;5.35;3.13;;;;;;;;;;4951380;28;20453;-66
2023/01/15 07:04:59;;;;;;;6.28;3.05;;;;;;;;;;4951237;28;20051;-68
2023/01/15 07:07:27;;;;;;;4.97;2.90;;;;;;;;;;4950816;28;20039;-68
2023/01/15 07:09:53;;;;;;;5.22;3.22;;;;;;;;;;4955546;28;20313;-67
2023/01/15 07:12:20;;;;;;;4.72;3.03;;;;;;;;;;4954828;28;20054;-77
2023/01/15 07:14:46;;;;;;;4.70;2.72;;;;;;;;;;4954370;28;20078;-72
2023/01/15 07:17:12;;;;;;;6.32;3.20;;;;;;;;;;4955273;28;20109;-69
2023/01/15 07:19:38;;;;;;;5.55;3.05;;;;;;;;;;4950421;28;20040;-63
2023/01/15 07:22:06;;;;;;;5.40;2.85;;;;;;;;;;4952608;28;20102;-70
2023/01/15 07:24:32;;;;;;;7.25;3.67;;;;;;;;;;4951100;28;20378;-64
2023/01/15 07:26:58;;;;;;;4.15;2.40;;;;;;;;;;4952670;28;20049;-69
2023/01/15 07:29:24;;;;;;;3.53;2.50;;;;;;;;;;4954669;28;20483;-68
2023/01/15 07:31:51;;;;;;;3.42;2.50;;;;;;;;;;4951618;28;20097;-73
2023/01/15 07:34:17;;;;;;;4.80;2.60;;;;;;;;;;4952765;28;20081;-68
2023/01/15 07:36:43;;;;;;;6.47;2.53;;;;;;;;;;4951812;28;20059;-67
2023/01/15 07:39:10;;;;;;;4.60;2.83;;;;;;;;;;4945500;28;20058;-65
2023/01/15 07:50:00;;;;;;;5.88;2.60;;;;;;;;;;4952416;28;20051;-68
2023/01/15 07:52:26;;;;;;;9.52;2.47;;;;;;;;;;4953267;28;20051;-70
2023/01/15 07:54:52;;;;;;;3.35;2.03;;;;;;;;;;4957500;28;20137;-69
2023/01/15 07:57:20;;;;;;;3.47;2.38;;;;;;;;;;4955875;28;20043;-74
2023/01/15 07:59:47;;;;;;;4.82;2.30;;;;;;;;;;4958583;28;20646;-77
2023/01/15 08:02:13;;;;;;;4.20;2.25;;;;;;;;;;4956740;28;20544;-62
2023/01/15 08:04:39;;;;;;;3.78;2.40;;;;;;;;;;4967772;28;20051;-64
2023/01/15 08:07:07;;;;;;;7.72;2.42;;;;;;;;;;4955691;28;20047;-74
2023/01/15 08:09:33;;;;;;;10.68;2.22;;;;;;;;;;4950472;28;20050;-68
2023/01/15 08:17:33;;;;;;;5.57;2.25;;;;;;;;;;4952056;28;20520;-73
2023/01/15 08:19:59;;;;;;;7.05;2.67;;;;;;;;;;4955148;28;20051;-70
2023/01/15 08:22:25;;;;;;;6.05;2.53;;;;;;;;;;4953593;28;20046;-71
2023/01/15 08:24:51;;;;;;;7.60;2.38;;;;;;;;;;4957138;28;20062;-76
2023/01/15 08:27:17;;;;;;;5.25;2.85;;;;;;;;;;4954269;28;20551;-72
2023/01/15 08:29:43;;;;;;;8.15;3.28;;;;;;;;;;4949793;28;20051;-65
2023/01/15 08:32:09;;;;;;;7.35;2.63;;;;;;;;;;4954997;28;21084;-78
2023/01/15 08:34:35;;;;;;;6.85;2.80;;;;;;;;;;4949539;28;20638;-63
2023/01/15 08:37:01;;;;;;;9.25;2.80;;;;;;;;;;4957307;28;21086;-69
2023/01/15 08:39:27;;;;;;;8.88;3.25;;;;;;;;;;4950174;28;20050;-75
2023/01/15 08:41:55;;;;;;;5.60;3.67;;;;;;;;;;4949134;28;20181;-74
2023/01/15 08:44:22;;;;;;;22.38;3.70;;;;;;;;;;4957879;28;20414;-76
2023/01/15 08:46:50;;;;;;;5.57;3.20;;;;;;;;;;4953665;28;20252;-74
2023/01/15 08:49:16;;;;;;;7.95;3.20;;;;;;;;;;4955677;28;20689;-79
2023/01/15 08:51:46;;;;;;;6.57;3.50;;;;;;;;;;4955349;28;20169;-67
2023/01/15 08:54:12;;;;;;;7.97;4.00;;;;;;;;;;4955509;28;20838;-77
2023/01/15 08:56:38;;;;;;;7.78;3.50;;;;;;;;;;4956002;28;20062;-64
2023/01/15 08:59:05;;;;;;;7.43;3.20;;;;;;;;;;4949948;28;20051;-73
2023/01/15 09:01:31;;;;;;;4.90;3.30;;;;;;;;;;4951174;28;20559;-74
2023/01/15 09:03:57;;;;;;;4.88;3.42;;;;;;;;;;4952787;28;20046;-70
2023/01/15 09:06:24;;;;;;;9.25;4.43;;;;;;;;;;4953914;28;20058;-77
2023/01/15 09:08:50;;;;;;;5.30;3.30;;;;;;;;;;4946468;28;20046;-70
2023/01/15 09:11:16;;;;;;;4.93;3.20;;;;;;;;;;4943680;28;20070;-74
2023/01/15 09:13:42;;;;;;;8.48;3.33;;;;;;;;;;4957859;28;20051;-74
2023/01/15 09:16:08;;;;;;;9.40;3.25;;;;;;;;;;4959520;28;20051;-67
2023/01/15 09:18:40;;;;;;;6.95;3.55;;;;;;;;;;4955183;28;20043;-72
2023/01/15 09:21:06;;;;;;;7.63;3.47;;;;;;;;;;4958345;28;20043;-66
2023/01/15 09:23:32;;;;;;;5.70;3.67;;;;;;;;;;4962587;28;20070;-68
2023/01/15 09:26:01;;;;;;;5.13;3.17;;;;;;;;;;4960942;28;20351;-75
2023/01/15 09:28:28;;;;;;;6.55;3.28;;;;;;;;;;4962753;28;20080;-69
2023/01/15 09:30:54;;;;;;;7.55;3.58;;;;;;;;;;4954562;28;20086;-67
2023/01/15 09:33:20;;;;;;;6.95;3.40;;;;;;;;;;4963023;28;20539;-66
2023/01/15 09:35:46;;;;;;;6.50;3.53;;;;;;;;;;4961126;28;20537;-67
2023/01/15 09:38:18;;;;;;;5.57;3.33;;;;;;;;;;4958429;28;20113;-76
2023/01/15 09:40:54;;;;;;;5.47;3.53;;;;;;;;;;4956888;28;20492;-67
2023/01/15 09:43:38;;;;;;;7.25;3.35;;;;;;;;;;4962920;28;20402;-67
2023/01/15 09:46:12;;;;;;;6.05;3.20;;;;;;;;;;4958933;28;20520;-77
2023/01/15 09:48:38;;;;;;;5.97;3.30;;;;;;;;;;4954356;28;20053;-71
2023/01/15 09:51:10;;;;;;;4.97;3.20;;;;;;;;;;4957280;28;20058;-67
2023/01/15 09:54:00;;;;;;;7.25;3.30;;;;;;;;;;4950672;28;20075;-78
2023/01/15 09:56:29;;;;;;;6.25;3.30;;;;;;;;;;4955585;28;20508;-64
2023/01/15 09:58:58;;;;;;;12.63;3.30;;;;;;;;;;4956453;28;20058;-71
2023/01/15 10:01:30;;;;;;;4.82;2.83;;;;;;;;;;4954317;28;20066;-69
2023/01/15 10:04:14;;;;;;;6.60;3.17;;;;;;;;;;4953044;28;20501;-72
2023/01/15 10:06:47;;;;;;;10.02;3.22;;;;;;;;;;4951752;28;20110;-71
2023/01/15 10:09:36;;;;;;;5.30;3.60;;;;;;;;;;4959061;28;20066;-65
2023/01/15 10:12:34;;;;;;;5.97;3.42;;;;;;;;;;4954599;28;20055;-71
2023/01/15 10:15:09;;;;;;;14.48;3.72;;;;;;;;;;4952871;28;20049;-65
2023/01/15 10:17:36;;;;;;;10.35;3.95;;;;;;;;;;4960495;28;20149;-69
2023/01/15 10:20:02;;;;;;;5.47;3.58;;;;;;;;;;4957359;28;20130;-66
2023/01/15 10:22:40;;;;;;;8.73;4.13;;;;;;;;;;4952910;28;20059;-74
2023/01/15 10:25:15;;;;;;;8.55;4.28;;;;;;;;;;4952942;28;20266;-65
2023/01/15 10:27:45;;;;;;;9.80;3.70;;;;;;;;;;4955214;28;20412;-70
2023/01/15 10:30:20;;;;;;;13.13;4.20;;;;;;;;;;4951028;28;20067;-66
2023/01/15 10:32:54;;;;;;;7.03;3.72;;;;;;;;;;4961803;28;20070;-65
2023/01/15 10:35:58;;;;;;;8.38;3.88;;;;;;;;;;4958624;28;20054;-69
2023/01/15 10:38:44;;;;;;;14.52;4.43;;;;;;;;;;4898350;29;20136;-69
2023/01/15 10:41:38;;;;;;;14.23;4.00;;;;;;;;;;4899820;29;20051;-70
2023/01/15 10:44:27;;;;;;;10.45;4.00;;;;;;;;;;4904037;29;20052;-73
2023/01/15 10:46:57;;;;;;;13.77;3.70;;;;;;;;;;4894823;29;20182;-71
2023/01/15 10:49:27;;;;;;;6.28;3.70;;;;;;;;;;4895020;29;20048;-73
2023/01/15 10:52:10;;;;;;;12.98;4.65;;;;;;;;;;4898674;29;20060;-67
2023/01/15 10:54:49;;;;;;;8.65;3.95;;;;;;;;;;4893575;29;20055;-67
2023/01/15 10:57:31;;;;;;;13.40;3.65;;;;;;;;;;4900666;29;20167;-73
2023/01/15 10:59:59;;;;;;;8.00;4.20;;;;;;;;;;4894685;29;20048;-72
2023/01/15 11:02:39;;;;;;;6.47;3.47;;;;;;;;;;4900386;29;20048;-65
2023/01/15 11:05:10;;;;;;;9.95;3.63;;;;;;;;;;4900216;29;20536;-73
2023/01/15 11:08:06;;;;;;;7.15;3.63;;;;;;;;;;4901184;29;20044;-77
2023/01/15 11:10:33;;;;;;;7.55;3.35;;;;;;;;;;4883746;29;20048;-68
2023/01/15 11:21:29;;;;;;;6.45;3.20;;;;;;;;;;4955214;28;20051;-74
2023/01/15 11:23:56;;;;;;;11.02;3.20;;;;;;;;;;4957933;28;20062;-65
2023/01/15 11:26:27;;;;;;;7.20;3.42;;;;;;;;;;4959768;28;20298;-77
2023/01/15 11:28:54;;;;;;;11.63;3.40;;;;;;;;;;4950698;28;20055;-74
2023/01/15 11:31:20;;;;;;;11.85;3.38;;;;;;;;;;4960916;28;20086;-81
2023/01/15 11:34:02;;;;;;;9.93;3.67;;;;;;;;;;4950833;28;20657;-72
2023/01/15 11:36:29;;;;;;;15.88;3.35;;;;;;;;;;4954296;28;20055;-67
2023/01/15 11:38:55;;;;;;;9.75;3.30;;;;;;;;;;4958052;28;20133;-69
2023/01/15 11:52:45;;;;;;;7.35;3.88;;;;;;;;;;4953256;28;20051;-70
2023/01/15 11:55:19;;;;;;;8.00;4.10;;;;;;;;;;4958119;28;20078;-73
2023/01/15 11:57:46;;;;;;;12.90;3.97;;;;;;;;;;4959300;28;21032;-78
2023/01/15 12:00:29;;;;;;;15.57;4.55;;;;;;;;;;4977147;28;20297;-71
2023/01/15 12:03:00;;;;;;;6.75;3.40;;;;;;;;;;4963858;28;20049;-69
2023/01/15 12:05:30;;;;;;;8.77;3.45;;;;;;;;;;4979612;28;20088;-80
2023/01/15 12:08:00;;;;;;;5.90;3.35;;;;;;;;;;4963223;28;20055;-72
2023/01/15 12:13:57;;;;;;;10.43;3.70;;;;;;;;;;4957030;28;20054;-70
2023/01/15 12:16:35;;;;;;;5.63;3.20;;;;;;;;;;4962322;28;20047;-74
2023/01/15 12:19:25;;;;;;;7.60;3.30;;;;;;;;;;4953521;28;20059;-72
2023/01/15 12:22:07;;;;;;;7.43;2.95;;;;;;;;;;4958461;28;20055;-74
2023/01/15 12:24:51;;;;;;;18.10;3.25;;;;;;;;;;4975915;28;20047;-75
2023/01/15 12:27:35;;;;;;;7.95;3.13;;;;;;;;;;4958902;28;20121;-70
2023/01/15 12:30:25;;;;;;;16.08;2.83;;;;;;;;;;4958633;28;20078;-74
2023/01/15 12:33:06;;;;;;;4.78;2.70;;;;;;;;;;4961885;28;20205;-68
2023/01/15 12:35:46;;;;;;;8.45;2.55;;;;;;;;;;4966184;28;20073;-77
2023/01/15 12:38:22;;;;;;;6.10;2.85;;;;;;;;;;4964302;28;20157;-68
2023/01/15 12:40:55;;;;;;;5.32;2.50;;;;;;;;;;4964582;28;20133;-69
2023/01/15 12:46:15;;;;;;;4.63;2.70;;;;;;;;;;4960697;28;20497;-73
2023/01/15 12:48:50;;;;;;;4.13;2.85;;;;;;;;;;4957164;28;20552;-69
2023/01/15 12:51:31;;;;;;;5.65;2.65;;;;;;;;;;4959581;28;20106;-66
2023/01/15 12:54:14;;;;;;;9.70;2.40;;;;;;;;;;4958552;28;20888;-71
2023/01/15 12:57:19;;;;;;;8.63;2.53;;;;;;;;;;4958626;28;20078;-71
2023/01/15 13:00:09;;;;;;;4.97;2.40;;;;;;;;;;4925790;28;20574;-74
2023/01/15 13:02:53;;;;;;;8.90;2.28;;;;;;;;;;4940223;28;20134;-70
2023/01/15 13:05:30;;;;;;;5.30;2.88;;;;;;;;;;4959914;28;20051;-70
2023/01/15 13:07:59;;;;;;;3.50;2.65;;;;;;;;;;4961145;28;20055;-75
2023/01/15 13:10:27;;;;;;;4.03;2.85;;;;;;;;;;4957017;28;20058;-67
2023/01/15 13:12:58;;;;;;;6.18;2.80;;;;;;;;;;4956572;28;20100;-71
2023/01/15 13:15:31;;;;;;;7.13;2.78;;;;;;;;;;4960943;28;20366;-76
2023/01/15 13:18:26;;;;;;;4.85;2.60;;;;;;;;;;4953761;28;20651;-69
2023/01/15 13:20:54;;;;;;;3.70;2.65;;;;;;;;;;4942880;28;20161;-70
2023/01/15 13:23:42;;;;;;;3.78;2.60;;;;;;;;;;4957359;28;20043;-74
2023/01/15 13:26:25;;;;;;;5.82;3.20;;;;;;;;;;4957239;28;20082;-72
2023/01/15 13:28:52;;;;;;;5.03;2.95;;;;;;;;;;4956167;28;20057;-74
2023/01/15 13:31:20;;;;;;;11.65;2.90;;;;;;;;;;4957853;28;20042;-74
2023/01/15 13:33:51;;;;;;;6.07;2.80;;;;;;;;;;4960233;28;20081;-77
2023/01/15 13:36:39;;;;;;;5.32;2.72;;;;;;;;;;4955751;28;20681;-77
2023/01/15 13:39:10;;;;;;;5.50;2.70;;;;;;;;;;4957044;28;20050;-72
2023/01/15 13:44:21;;;;;;;;;;;;;;;;;;4960337;28;20051;-68
2023/01/15 13:47:00;;;;;;;6.90;2.97;;;;;;;;;;4954360;28;19930;-69
2023/01/15 13:49:34;;;;;;;6.18;2.90;;;;;;;;;;4959210;28;20130;-73
2023/01/15 13:52:03;;;;;;;4.55;2.90;;;;;;;;;;4951495;28;20047;-78
2023/01/15 13:54:32;;;;;;;4.32;2.85;;;;;;;;;;4954088;28;20101;-74
2023/01/15 13:57:23;;;;;;;7.47;3.00;;;;;;;;;;4958942;28;20121;-73
2023/01/15 13:59:49;;;;;;;6.25;3.58;;;;;;;;;;4959239;28;20085;-68
2023/01/15 14:02:33;;;;;;;8.27;2.88;;;;;;;;;;4958335;28;20133;-71
2023/01/15 14:05:21;;;;;;;4.30;2.80;;;;;;;;;;4956779;28;20339;-71
2023/01/15 14:07:48;;;;;;;4.28;3.13;;;;;;;;;;4957080;28;20046;-74
2023/01/15 14:10:20;;;;;;;4.25;2.78;;;;;;;;;;4957419;28;20051;-69
2023/01/15 14:12:58;;;;;;;10.77;3.15;;;;;;;;;;4958630;28;20058;-72
2023/01/15 14:15:46;;;;;;;6.28;2.90;;;;;;;;;;4959409;28;20234;-75
2023/01/15 14:18:50;;;;;;;10.15;2.80;;;;;;;;;;4954882;28;20071;-71
2023/01/15 14:21:22;;;;;;;4.40;2.70;;;;;;;;;;4952775;28;20050;-75
2023/01/15 14:23:52;;;;;;;7.18;2.30;;;;;;;;;;4959046;28;20481;-69
2023/01/15 14:26:39;;;;;;;4.88;2.60;;;;;;;;;;4954459;28;20066;-70
2023/01/15 14:29:24;;;;;;;4.95;2.90;;;;;;;;;;4971280;28;20554;-77
2023/01/15 14:32:15;;;;;;;4.00;2.63;;;;;;;;;;4957666;28;20097;-69
2023/01/15 14:34:42;;;;;;;6.13;2.50;;;;;;;;;;4960754;28;20125;-70
2023/01/15 14:37:14;;;;;;;4.10;2.50;;;;;;;;;;4956828;28;20454;-75
2023/01/15 14:39:51;;;;;;;7.03;2.45;;;;;;;;;;4960483;28;20100;-67
2023/01/15 14:45:38;;;;;;;3.88;2.53;;;;;;;;;;4955189;28;20138;-68
2023/01/15 14:48:35;;;;;;;6.32;2.38;;;;;;;;;;4959746;28;20093;-76
2023/01/15 14:51:17;;;;;;;5.68;2.38;;;;;;;;;;4950447;28;20065;-70
2023/01/15 14:53:49;;;;;;;2.63;2.15;;;;;;;;;;4946600;28;20047;-71
2023/01/15 14:56:22;;;;;;;5.75;2.58;;;;;;;;;;4954376;28;20143;-78
2023/01/15 14:59:02;;;;;;;4.15;2.53;;;;;;;;;;4957008;28;20276;-75
2023/01/15 15:01:44;;;;;;;7.30;2.20;;;;;;;;;;4956960;28;20063;-72
2023/01/15 15:04:35;;;;;;;3.55;2.10;;;;;;;;;;4954410;28;20130;-74
2023/01/15 15:07:06;;;;;;;10.18;2.00;;;;;;;;;;4958111;28;20781;-72
2023/01/15 15:09:47;;;;;;;5.13;1.90;;;;;;;;;;4952973;28;20122;-78
2023/01/15 15:12:24;;;;;;;15.57;2.20;;;;;;;;;;4956022;28;20051;-68
2023/01/15 15:14:56;;;;;;;9.73;2.35;;;;;;;;;;4957240;28;21357;-71
2023/01/15 15:17:32;;;;;;;3.05;1.52;;;;;;;;;;4958166;28;20157;-76
2023/01/15 15:20:16;;;;;;;9.10;1.55;;;;;;;;;;4954774;28;20117;-75
2023/01/15 15:22:45;;;;;;;4.22;1.50;;;;;;;;;;4954109;28;20125;-70
2023/01/15 15:25:20;;;;;;;6.63;1.40;;;;;;;;;;4957409;28;20416;-67
2023/01/15 15:27:45;;;;;;;3.85;1.60;;;;;;;;;;4956341;28;20082;-68
2023/01/15 15:30:15;;;;;;;5.38;1.67;;;;;;;;;;4961512;28;20054;-74
2023/01/15 15:32:42;;;;;;;6.55;1.40;;;;;;;;;;4957679;28;20084;-71
2023/01/15 15:35:26;;;;;;;6.95;1.70;;;;;;;;;;4960380;28;20051;-72
2023/01/15 15:37:52;;;;;;;3.40;1.30;;;;;;;;;;4960689;28;20047;-70
2023/01/15 15:40:22;;;;;;;6.50;2.17;;;;;;;;;;4959665;28;20154;-68
2023/01/15 15:48:44;;;;;;;3.97;1.30;;;;;;;;;;4964897;28;20361;-70
2023/01/15 15:51:22;;;;;;;3.95;1.45;;;;;;;;;;4958174;28;20546;-73
2023/01/15 15:53:48;;;;;;;4.68;1.50;;;;;;;;;;4959029;28;20039;-74
2023/01/15 15:56:15;;;;;;;4.30;1.65;;;;;;;;;;4958544;28;20059;-69
2023/01/15 15:58:41;;;;;;;5.50;1.35;;;;;;;;;;4962507;28;20511;-67
2023/01/15 16:01:12;;;;;;;6.03;1.55;;;;;;;;;;4965925;28;20061;-75
2023/01/15 16:03:46;;;;;;;5.10;1.73;;;;;;;;;;4959703;28;20047;-75
2023/01/15 16:06:19;;;;;;;3.88;1.50;;;;;;;;;;4958040;28;20051;-67
2023/01/15 16:09:00;;;;;;;9.23;1.60;;;;;;;;;;4960085;28;20061;-81
2023/01/15 16:11:27;;;;;;;5.53;1.67;;;;;;;;;;4948749;28;20113;-74
2023/01/15 16:13:55;;;;;;;15.70;1.70;;;;;;;;;;4957496;28;20232;-74
2023/01/15 16:16:26;;;;;;;18.65;2.00;;;;;;;;;;4956052;28;20051;-73